Flight Track Log - Related Links

Times and Time Zones

All times are in EDT time to prevent confusion due to time zone crossing. See the AWE2122 flight status page for this flight to view local times or setup timezone preferences in your user account.

Time Position Orientation Groundspeed Altitude Reporting Facility
EDT Latitude Longitude Course Direction KTS MPH feet Rate Location/Type
Sun 04:43:07 PM 38.8242 -77.0353 76° East 135 155 1,600  Level Washington Center
Sun 04:44:09 PM 38.7767 -77.0294 175° South 165 190 3,100 2,250 Climbing Washington Center
Sun 04:45:00 PM 39.0599 -76.7111 67° East  Level Estimated
Sun 04:45:07 PM 38.7833 -76.9333 85° East 283 326 6,100  Level Potomac TRACON
Sun 04:46:00 PM 38.9818 -76.5226 72° East  Level FlightAware Approximate
Sun 04:46:14 PM 38.8181 -76.8378 65° Northeast 301 346 8,700  Level Washington Center
Sun 04:47:00 PM 39.0121 -76.3873 74° East  Level FlightAware Approximate
Sun 04:47:14 PM 38.8617 -76.7408 60° Northeast 308 354 9,300  Level Washington Center
Sun 04:48:00 PM 39.0204 -76.2479 76° East  Level FlightAware Approximate
Sun 04:48:18 PM 38.9433 -76.7194 12° North 306 352 12,000  Level Washington Center
Sun 04:49:19 PM 39.0156 -76.6628 31° Northeast 322 371 14,600 2,160 Climbing Washington Center
Sun 04:50:23 PM 39.0217 -76.5078 87° East 362 417 16,500 1,210 Climbing Washington Center
Sun 04:51:23 PM 39.0297 -76.3633 86° East 399 459 17,100 290 Climbing Washington Center
Sun 04:52:27 PM 39.0356 -76.2156 87° East 409 471 17,100 -48 Level Washington Center
Sun 04:53:28 PM 39.0444 -76.0578 86° East 410 472 17,000 -49 Descending Washington Center
Sun 04:54:29 PM 39.0506 -75.9092 87° East 416 479 17,000  Level Washington Center
Sun 04:55:33 PM 39.0586 -75.7633 86° East 414 476 17,000  Level Washington Center
Sun 04:56:34 PM 39.0642 -75.6167 87° East 414 476 17,000  Level Washington Center
Sun 04:57:37 PM 39.0692 -75.4683 87° East 417 480 17,000  Level Washington Center
Sun 04:58:38 PM 39.0775 -75.2917 86° East 417 480 17,000  Level Washington Center
Sun 04:59:41 PM 39.0822 -75.1461 88° East 414 476 17,000  Level Washington Center
Sun 05:00:42 PM 39.0886 -74.9992 87° East 414 476 17,000  Level Washington Center
Sun 05:01:45 PM 39.0936 -74.8528 87° East 414 476 17,000  Level Washington Center
Sun 05:02:47 PM 39.1458 -74.7258 62° Northeast 414 476 17,000  Level Washington Center
Sun 05:03:47 PM 39.2328 -74.5906 50° Northeast 413 475 17,000  Level Washington Center
Sun 05:04:51 PM 39.3058 -74.4778 50° Northeast 412 474 17,000  Level Washington Center
Sun 05:05:56 PM 39.3836 -74.3594 50° Northeast 415 478 17,000 48 Level New York Center
Sun 05:06:55 PM 39.4581 -74.2422 51° Northeast 433 498 17,100 50 Climbing New York Center
Sun 05:07:56 PM 39.5367 -74.1194 50° Northeast 422 486 17,100  Level New York Center
Sun 05:08:54 PM 39.6108 -74.0044 50° Northeast 415 478 17,100  Level New York Center
Sun 05:09:55 PM 39.6869 -73.8892 49° Northeast 415 478 17,100 -94 Level New York Center
Sun 05:11:02 PM 39.7581 -73.7686 52° Northeast 414 476 16,900 -94 Descending Washington Center
Sun 05:12:03 PM 39.8308 -73.6531 51° Northeast 415 478 16,900  Level Washington Center
Sun 05:13:07 PM 39.9028 -73.5386 51° Northeast 413 475 16,900 48 Level Washington Center
Sun 05:14:09 PM 40.0008 -73.4258 41° Northeast 414 476 17,000 49 Climbing Boston Center
Sun 05:15:10 PM 40.0850 -73.3247 43° Northeast 413 475 17,000  Level Boston Center
Sun 05:16:11 PM 40.1706 -73.2244 42° Northeast 413 475 17,000  Level Boston Center
Sun 05:17:13 PM 40.2556 -73.1222 43° Northeast 414 476 17,000  Level Boston Center
Sun 05:18:14 PM 40.3567 -73.0011 42° Northeast 414 476 17,000  Level Boston Center
Sun 05:19:16 PM 40.4447 -72.9036 40° Northeast 414 476 17,000  Level Boston Center
Sun 05:20:17 PM 40.5322 -72.8053 40° Northeast 414 476 17,000  Level Boston Center
Sun 05:21:18 PM 40.6022 -72.6875 52° Northeast 415 478 17,000  Level Boston Center
Sun 05:22:20 PM 40.6706 -72.5681 53° Northeast 415 478 17,000  Level Boston Center
Sun 05:23:21 PM 40.7372 -72.4478 54° Northeast 415 478 17,000  Level Boston Center
Sun 05:24:23 PM 40.8197 -72.3047 53° Northeast 415 478 17,000 49 Level Boston Center
Sun 05:25:24 PM 40.8883 -72.1825 53° Northeast 416 479 17,100 49 Climbing Boston Center
Sun 05:26:26 PM 40.9567 -72.0614 53° Northeast 415 478 17,100 -49 Level Boston Center
Sun 05:27:27 PM 41.0419 -71.9628 41° Northeast 414 476 17,000 -49 Descending Boston Center
Sun 05:28:29 PM 41.1472 -71.8578 37° Northeast 430 495 17,000  Level Boston Center
Sun 05:29:30 PM 41.2439 -71.7594 37° Northeast 436 502 17,000 49 Level Boston Center
Sun 05:30:32 PM 41.3469 -71.6528 38° Northeast 437 503 17,100 49 Climbing Boston Center
Sun 05:31:33 PM 41.4431 -71.5536 38° Northeast 438 504 17,100  Level Boston Center
Sun 05:32:35 PM 41.5464 -71.4469 38° Northeast 438 504 17,100 -878 Level Boston Center
Sun 05:33:36 PM 41.6411 -71.3472 38° Northeast 438 504 15,300 -2,098 Descending Boston Center
Sun 05:34:38 PM 41.7347 -71.2497 38° Northeast 434 499 12,800 -2,049 Descending Boston Center
Sun 05:35:39 PM 41.8297 -71.1508 38° Northeast 402 463 11,100 -1,082 Descending Boston Center
Sun 05:36:40 PM 41.8881 -71.0467 53° Northeast 357 411 10,600 -537 Descending Boston Center
Sun 05:37:42 PM 41.9356 -70.9389 59° Northeast 340 391 10,000 -537 Descending Boston Center
Sun 05:38:43 PM 41.9789 -70.8392 60° Northeast 324 373 9,500 -585 Descending Boston Center
Sun 05:39:45 PM 42.0261 -70.7369 58° Northeast 323 372 8,800 -634 Descending Boston Center
Sun 05:40:46 PM 42.0864 -70.6497 47° Northeast 317 365 8,200 -885 Descending Boston Center
Sun 05:41:47 PM 42.1583 -70.5961 29° Northeast 299 344 7,000 -1,171 Descending Boston Center
Sun 05:42:49 PM 42.2358 -70.5619 18° North 294 338 5,800 -976 Descending Boston Center
Sun 05:43:50 PM 42.3006 -70.5711 354° North 251 289 5,000 -878 Descending Boston Center
Sun 05:44:52 PM 42.3708 -70.5844 352° North 217 250 4,000 -488 Descending Boston Center
Sun 05:45:53 PM 42.4078 -70.6189 325° Northwest 186 214 4,000  Level Boston Center
Sun 05:46:55 PM 42.4161 -70.6736 282° West 158 182 4,000 -146 Level Boston Center
Sun 05:47:56 PM 42.4058 -70.7303 256° West 157 181 3,700 -590 Descending Boston Center
Sun 05:48:57 PM 42.3961 -70.7864 257° West 157 181 2,800 -829 Descending Boston Center
Sun 05:49:59 PM 42.3856 -70.8486 257° West 157 181 2,000 -780 Descending Boston Center
Sun 05:51:00 PM 42.3742 -70.9089 256° West 156 180 1,200 -732 Descending Boston Center
Sun 05:52:02 PM 42.3664 -70.9564 258° West 137 158 500 -390 Descending Boston Center
Sun 05:53:03 PM 42.3578 -71.0036 256° West 134 154 400 -98 Descending Boston Center

Login

Don't have an account? Register now (free) for customized features, flight alerts, and more!